createdAt,value
2019-02-21T00:01:24.273Z,99478.77
2019-02-21T00:03:53.420Z,99482.02
2019-02-21T00:06:22.521Z,99478.05
2019-02-21T00:08:51.689Z,99487.80
2019-02-21T00:11:20.791Z,99483.33
2019-02-21T00:13:49.941Z,99484.23
2019-02-21T00:16:19.086Z,99483.50
2019-02-21T00:18:48.235Z,99485.94
2019-02-21T00:21:17.436Z,99494.03
2019-02-21T00:23:46.545Z,99493.48
2019-02-21T00:26:15.859Z,99494.66
2019-02-21T00:28:45.027Z,99486.48
2019-02-21T00:31:14.203Z,99480.91
2019-02-21T00:33:43.701Z,99482.48
2019-02-21T00:36:12.859Z,99481.59
2019-02-21T00:38:41.953Z,99481.45
2019-02-21T00:41:11.130Z,99480.52
2019-02-21T00:43:41.097Z,99485.85
2019-02-21T00:46:10.188Z,99484.83
2019-02-21T00:48:39.285Z,99487.08
2019-02-21T00:51:08.449Z,99487.34
2019-02-21T00:53:37.616Z,99496.06
2019-02-21T00:56:06.786Z,99494.41
2019-02-21T00:58:35.940Z,99498.02
2019-02-21T01:01:05.543Z,99499.48
2019-02-21T01:03:34.697Z,99493.09
2019-02-21T01:06:03.810Z,99497.14
2019-02-21T01:08:32.946Z,99495.30
2019-02-21T01:11:02.104Z,99499.42
2019-02-21T01:13:31.237Z,99500.25
2019-02-21T01:16:00.380Z,99493.20
2019-02-21T01:18:29.531Z,99500.41
2019-02-21T01:20:58.685Z,99503.00
2019-02-21T01:23:28.061Z,99496.56
2019-02-21T01:25:57.223Z,99498.66
2019-02-21T01:28:26.357Z,99492.05
2019-02-21T01:30:57.193Z,99491.96
2019-02-21T01:33:26.355Z,99486.00
2019-02-21T01:35:55.512Z,99490.81
2019-02-21T01:38:24.613Z,99480.80
2019-02-21T01:40:54.145Z,99480.88
2019-02-21T01:43:23.353Z,99483.58
2019-02-21T01:45:52.499Z,99489.56
2019-02-21T01:48:22.001Z,99485.53
2019-02-21T01:50:51.175Z,99485.45
2019-02-21T01:53:20.321Z,99484.42
2019-02-21T01:55:49.423Z,99485.06
2019-02-21T01:58:18.739Z,99491.33
2019-02-21T02:00:47.875Z,99483.82
2019-02-21T02:03:17.013Z,99482.80
2019-02-21T02:05:46.122Z,99488.86
2019-02-21T02:08:15.281Z,99483.55
2019-02-21T02:10:44.715Z,99490.48
2019-02-21T02:13:24.218Z,99484.09
2019-02-21T02:15:44.711Z,99479.23
2019-02-21T02:18:14.177Z,99481.63
2019-02-21T02:20:43.300Z,99481.92
2019-02-21T02:23:12.418Z,99473.48
2019-02-21T02:25:41.912Z,99488.44
2019-02-21T02:28:11.016Z,99469.83
2019-02-21T02:30:40.180Z,99476.73
2019-02-21T02:33:09.368Z,99484.05
2019-02-21T02:35:38.536Z,99479.03
2019-02-21T02:38:07.631Z,99485.20
2019-02-21T02:40:36.781Z,99477.97
2019-02-21T02:43:05.895Z,99479.06
2019-02-21T02:45:35.031Z,99477.03
2019-02-21T02:48:04.174Z,99480.61
2019-02-21T02:50:33.675Z,99477.49
2019-02-21T02:53:02.826Z,99477.63
2019-02-21T02:55:31.961Z,99484.23
2019-02-21T02:58:01.115Z,99487.29
2019-02-21T03:00:30.255Z,99477.28
2019-02-21T03:02:59.443Z,99477.53
2019-02-21T03:05:28.608Z,99480.20
2019-02-21T03:07:57.698Z,99472.73
2019-02-21T03:10:26.850Z,99481.38
2019-02-21T03:12:55.979Z,99486.31
2019-02-21T03:15:25.120Z,99486.66
2019-02-21T03:17:54.218Z,99488.08
2019-02-21T03:20:23.374Z,99483.94
2019-02-21T03:22:52.495Z,99482.55
2019-02-21T03:25:21.658Z,99483.09
2019-02-21T03:27:50.775Z,99481.49
2019-02-21T03:30:19.912Z,99484.28
2019-02-21T03:32:49.024Z,99478.69
2019-02-21T03:35:18.162Z,99480.81
2019-02-21T03:37:47.266Z,99479.91
2019-02-21T03:40:16.444Z,99474.77
2019-02-21T03:42:45.552Z,99478.67
2019-02-21T03:45:14.797Z,99473.33
2019-02-21T03:47:43.947Z,99473.60
2019-02-21T03:50:13.625Z,99471.98
2019-02-21T03:52:42.766Z,99472.45
2019-02-21T03:55:11.897Z,99481.09
2019-02-21T03:57:41.049Z,99485.70
2019-02-21T04:00:10.289Z,99480.71
2019-02-21T04:02:39.513Z,99491.11
2019-02-21T04:05:08.851Z,99489.92
2019-02-21T04:07:38.010Z,99488.03
2019-02-21T04:10:07.424Z,99497.09
2019-02-21T04:12:36.568Z,99493.13
2019-02-21T04:15:06.122Z,99504.12
2019-02-21T04:17:35.318Z,99502.59
2019-02-21T04:20:04.609Z,99511.41
2019-02-21T04:22:33.737Z,99503.73
2019-02-21T04:25:02.915Z,99501.91
2019-02-21T04:27:32.099Z,99497.08
2019-02-21T04:30:01.223Z,99492.25
2019-02-21T04:32:30.364Z,99493.85
2019-02-21T04:34:59.478Z,99491.67
2019-02-21T04:37:28.627Z,99491.95
2019-02-21T04:39:57.843Z,99484.34
2019-02-21T04:42:26.999Z,99483.31
2019-02-21T04:44:56.116Z,99484.84
2019-02-21T04:47:25.620Z,99481.89
2019-02-21T04:49:54.735Z,99477.84
2019-02-21T04:52:23.967Z,99468.38
2019-02-21T04:54:53.643Z,99466.84
2019-02-21T04:57:22.818Z,99472.81
2019-02-21T04:59:51.928Z,99473.11
2019-02-21T05:02:29.260Z,99467.91
2019-02-21T05:04:51.906Z,99466.09
2019-02-21T05:07:21.048Z,99469.35
2019-02-21T05:09:58.060Z,99459.32
2019-02-21T05:12:21.413Z,99459.44
2019-02-21T05:14:50.628Z,99459.78
2019-02-21T05:17:19.776Z,99459.77
2019-02-21T05:19:48.887Z,99461.77
2019-02-21T05:22:18.270Z,99460.27
2019-02-21T05:24:47.386Z,99464.95
2019-02-21T05:27:20.271Z,99460.98
2019-02-21T05:29:49.762Z,99460.38
2019-02-21T05:32:41.198Z,99465.02
2019-02-21T05:35:31.128Z,99462.62
2019-02-21T05:38:09.167Z,99460.34
2019-02-21T05:40:48.766Z,99467.91
2019-02-21T05:43:37.362Z,99457.51
2019-02-21T05:46:37.940Z,99455.80
2019-02-21T05:49:22.185Z,99463.75
2019-02-21T05:52:05.715Z,99465.06
2019-02-21T05:54:53.487Z,99461.28
2019-02-21T05:57:40.431Z,99468.28
2019-02-21T06:00:36.886Z,99463.74
2019-02-21T06:03:24.587Z,99472.20
2019-02-21T06:06:18.499Z,99480.05
2019-02-21T06:09:00.265Z,99478.72
2019-02-21T06:11:47.075Z,99473.75
2019-02-21T06:14:38.302Z,99471.44
2019-02-21T06:17:24.358Z,99469.09
2019-02-21T06:19:59.707Z,99475.57
2019-02-21T06:22:41.060Z,99479.30
2019-02-21T06:25:30.605Z,99483.09
2019-02-21T06:28:05.254Z,99491.54
2019-02-21T06:30:44.218Z,99486.72
2019-02-21T06:33:13.378Z,99490.50
2019-02-21T06:35:43.014Z,99486.91
2019-02-21T06:38:12.143Z,99487.85
2019-02-21T06:40:41.242Z,99484.13
2019-02-21T06:43:10.667Z,99488.24
2019-02-21T06:45:39.831Z,99490.22
2019-02-21T06:48:09.401Z,99497.04
2019-02-21T06:50:38.553Z,99498.41
2019-02-21T06:53:08.141Z,99496.52
2019-02-21T06:55:37.408Z,99498.07
2019-02-21T06:58:06.548Z,99512.11
2019-02-21T07:00:35.709Z,99507.86
2019-02-21T07:03:15.109Z,99503.23
2019-02-21T07:05:37.004Z,99509.58
2019-02-21T07:08:08.741Z,99513.52
2019-02-21T07:10:37.378Z,99513.73
2019-02-21T07:13:06.507Z,99523.80
2019-02-21T07:15:35.739Z,99525.12
2019-02-21T07:18:04.914Z,99526.33
2019-02-21T07:20:34.037Z,99534.28
2019-02-21T07:23:03.190Z,99531.87
2019-02-21T07:25:39.452Z,99537.47
2019-02-21T07:28:11.650Z,99535.28
2019-02-21T07:30:39.674Z,99534.13
2019-02-21T07:33:08.850Z,99534.88
2019-02-21T07:35:38.630Z,99533.02
2019-02-21T07:38:07.759Z,99534.13
2019-02-21T07:40:36.875Z,99535.92
2019-02-21T07:43:06.021Z,99544.75
2019-02-21T07:45:36.304Z,99544.08
2019-02-21T07:48:05.745Z,99549.67
2019-02-21T07:50:35.005Z,99547.11
2019-02-21T07:53:04.448Z,99550.89
2019-02-21T07:55:33.580Z,99547.02
2019-02-21T07:58:03.979Z,99550.14
2019-02-21T08:00:33.344Z,99548.31
2019-02-21T08:03:02.483Z,99550.79
2019-02-21T08:05:31.992Z,99554.39
2019-02-21T08:08:01.105Z,99557.42
2019-02-21T08:10:33.507Z,99559.50
2019-02-21T08:13:01.167Z,99560.55
2019-02-21T08:15:30.490Z,99561.01
2019-02-21T08:17:59.604Z,99559.68
2019-02-21T08:20:33.990Z,99562.64
2019-02-21T08:22:59.628Z,99562.45
2019-02-21T08:25:28.877Z,99567.84
2019-02-21T08:27:57.998Z,99564.41
2019-02-21T08:30:29.169Z,99561.77
2019-02-21T08:33:25.913Z,99567.42
2019-02-21T08:35:57.732Z,99570.72
2019-02-21T08:38:25.920Z,99578.18
2019-02-21T08:40:57.067Z,99575.86
2019-02-21T08:43:25.949Z,99576.92
2019-02-21T08:45:57.448Z,99577.09
2019-02-21T08:48:25.917Z,99577.19
2019-02-21T08:50:55.101Z,99573.47
2019-02-21T08:53:24.215Z,99572.66
2019-02-21T08:55:55.889Z,99571.87
2019-02-21T08:58:24.131Z,99571.49
2019-02-21T09:00:54.470Z,99571.07
2019-02-21T09:03:23.732Z,99570.00
2019-02-21T09:05:52.873Z,99561.45
2019-02-21T09:08:32.706Z,99557.52
2019-02-21T09:10:52.846Z,99561.42
2019-02-21T09:13:23.910Z,99565.25
2019-02-21T09:15:52.814Z,99566.97
2019-02-21T09:18:21.928Z,99572.88
2019-02-21T09:20:50.996Z,99572.08
2019-02-21T09:23:20.149Z,99572.08
2019-02-21T09:25:49.688Z,99578.52
2019-02-21T09:28:18.900Z,99578.52
2019-02-21T09:30:47.981Z,99578.23
2019-02-21T09:33:18.997Z,99579.02
2019-02-21T09:35:47.953Z,99586.34
2019-02-21T09:38:17.428Z,99586.34
2019-02-21T09:40:46.554Z,99603.56
2019-02-21T09:43:15.656Z,99603.56
2019-02-21T09:45:44.782Z,99602.95
2019-02-21T09:48:13.886Z,99605.51
2019-02-21T09:50:43.053Z,99612.56
2019-02-21T09:53:12.163Z,99601.33
2019-02-21T09:55:41.288Z,99611.92
2019-02-21T09:58:10.841Z,99612.34
2019-02-21T10:00:39.980Z,99622.04
2019-02-21T10:03:09.084Z,99631.35
2019-02-21T10:05:38.221Z,99605.80
2019-02-21T10:08:07.324Z,99599.84
2019-02-21T10:10:36.567Z,99610.56
2019-02-21T10:13:05.643Z,99611.01
2019-02-21T10:15:34.813Z,99617.89
2019-02-21T10:18:03.897Z,99623.38
2019-02-21T10:20:33.052Z,99626.34
2019-02-21T10:23:02.152Z,99624.80
2019-02-21T10:25:31.401Z,99628.41
2019-02-21T10:28:00.611Z,99635.56
2019-02-21T10:30:29.741Z,99638.38
2019-02-21T10:32:58.862Z,99629.66
2019-02-21T10:35:27.991Z,99625.52
2019-02-21T10:37:57.089Z,99626.59
2019-02-21T10:40:26.198Z,99628.23
2019-02-21T10:42:55.342Z,99624.38
2019-02-21T10:45:24.899Z,99618.39
2019-02-21T10:47:54.051Z,99611.63
2019-02-21T10:50:23.311Z,99597.59
2019-02-21T10:52:52.434Z,99582.03
2019-02-21T10:55:21.539Z,99582.03
2019-02-21T10:57:50.679Z,99579.97
2019-02-21T11:00:22.337Z,99579.97
2019-02-21T11:02:51.451Z,99569.30
2019-02-21T11:05:20.549Z,99555.77
2019-02-21T11:07:49.909Z,99557.98
2019-02-21T11:10:22.151Z,99552.16
2019-02-21T11:12:51.327Z,99553.19
2019-02-21T11:15:21.170Z,99548.03
2019-02-21T11:17:50.499Z,99555.98
2019-02-21T11:20:19.602Z,99551.49
2019-02-21T11:22:48.753Z,99556.41
2019-02-21T11:25:17.884Z,99550.75
2019-02-21T11:27:47.076Z,99540.17
2019-02-21T11:30:17.692Z,99541.43
2019-02-21T11:32:46.880Z,99538.71
2019-02-21T11:35:15.973Z,99530.90
2019-02-21T11:37:47.096Z,99524.11
2019-02-21T11:40:16.906Z,99529.93
2019-02-21T11:42:46.632Z,99526.53
2019-02-21T11:45:16.556Z,99515.19
2019-02-21T11:47:45.689Z,99518.09
2019-02-21T11:50:16.178Z,99521.01
2019-02-21T11:52:45.635Z,99511.91
2019-02-21T11:55:17.745Z,99513.73
2019-02-21T11:57:46.945Z,99499.55
2019-02-21T12:00:39.149Z,99514.27
2019-02-21T12:03:08.298Z,99523.73
2019-02-21T12:05:37.402Z,99523.73
2019-02-21T12:08:06.525Z,99515.48
2019-02-21T12:10:35.655Z,99520.78
2019-02-21T12:13:05.094Z,99515.20
2019-02-21T12:15:34.395Z,99512.70
2019-02-21T12:18:03.570Z,99516.52
2019-02-21T12:20:32.664Z,99527.25
2019-02-21T12:23:01.783Z,99526.03
2019-02-21T12:25:31.289Z,99521.37
2019-02-21T12:28:00.414Z,99514.95
2019-02-21T12:30:29.611Z,99512.41
2019-02-21T12:32:58.741Z,99511.20
2019-02-21T12:35:29.805Z,99508.16
2019-02-21T12:37:59.036Z,99514.22
2019-02-21T12:40:28.145Z,99518.27
2019-02-21T12:42:57.467Z,99509.25
2019-02-21T12:45:26.573Z,99513.30
2019-02-21T12:47:55.705Z,99515.20
2019-02-21T12:50:24.803Z,99524.65
2019-02-21T12:52:54.055Z,99517.38
2019-02-21T12:55:29.353Z,99520.28
2019-02-21T12:57:54.056Z,99520.78
2019-02-21T13:00:23.452Z,99517.02
2019-02-21T13:02:52.569Z,99516.52
2019-02-21T13:05:22.071Z,99521.06
2019-02-21T13:07:51.195Z,99513.30
2019-02-21T13:10:22.969Z,99518.44
2019-02-21T13:12:52.213Z,99518.31
2019-02-21T13:15:24.923Z,99505.45
2019-02-21T13:17:54.012Z,99503.67
2019-02-21T13:20:23.237Z,99496.27
2019-02-21T13:22:52.976Z,99493.73
2019-02-21T13:25:22.073Z,99507.81
2019-02-21T13:27:51.216Z,99508.28
2019-02-21T13:30:20.323Z,99507.23
2019-02-21T13:32:49.495Z,99506.13
2019-02-21T13:35:18.613Z,99499.67
2019-02-21T13:37:48.824Z,99504.54
2019-02-21T13:40:20.937Z,99496.41
2019-02-21T13:42:49.420Z,99498.23
2019-02-21T13:45:18.865Z,99502.09
2019-02-21T13:47:48.003Z,99502.95
2019-02-21T13:50:17.638Z,99502.37
2019-02-21T13:52:47.146Z,99506.23
2019-02-21T13:55:16.583Z,99505.16
2019-02-21T13:57:45.741Z,99505.63
2019-02-21T14:00:17.150Z,99501.28
2019-02-21T14:02:46.839Z,99499.20
2019-02-21T14:05:16.005Z,99506.02
2019-02-21T14:07:45.337Z,99507.69
2019-02-21T14:10:15.184Z,99515.33
2019-02-21T14:12:44.339Z,99506.13
2019-02-21T14:15:16.010Z,99507.45
2019-02-21T14:17:46.681Z,99519.59
2019-02-21T14:20:16.544Z,99516.08
2019-02-21T14:22:45.713Z,99509.62
2019-02-21T14:25:15.080Z,99505.39
2019-02-21T14:27:44.257Z,99515.70
2019-02-21T14:30:15.616Z,99518.61
2019-02-21T14:32:45.961Z,99506.84
2019-02-21T14:35:16.025Z,99508.04
2019-02-21T14:37:45.147Z,99505.98
2019-02-21T14:40:14.574Z,99497.95
2019-02-21T14:42:45.114Z,99504.17
2019-02-21T14:45:16.186Z,99504.04
2019-02-21T14:47:45.333Z,99508.53
2019-02-21T14:50:16.110Z,99517.05
2019-02-21T14:52:45.556Z,99516.66
2019-02-21T14:55:15.283Z,99523.84
2019-02-21T14:57:44.409Z,99528.35
2019-02-21T15:00:19.816Z,99532.61
2019-02-21T15:02:48.953Z,99530.62
2019-02-21T15:05:19.143Z,99526.04
2019-02-21T15:07:48.821Z,99534.64
2019-02-21T15:10:18.508Z,99525.06
2019-02-21T15:12:48.373Z,99527.98
2019-02-21T15:15:18.258Z,99526.78
2019-02-21T15:17:47.773Z,99527.97
2019-02-21T15:20:17.378Z,99521.53
2019-02-21T15:22:46.905Z,99527.96
2019-02-21T15:25:16.045Z,99527.27
2019-02-21T15:27:45.138Z,99526.61
2019-02-21T15:30:16.343Z,99529.28
2019-02-21T15:32:45.436Z,99519.82
2019-02-21T15:35:14.896Z,99530.86
2019-02-21T15:37:45.207Z,99539.20
2019-02-21T15:40:14.678Z,99537.75
2019-02-21T15:42:43.870Z,99537.39
2019-02-21T15:45:23.016Z,99548.66
2019-02-21T15:47:45.890Z,99550.05
2019-02-21T15:50:15.181Z,99554.77
2019-02-21T15:52:44.647Z,99551.49
2019-02-21T15:55:14.733Z,99553.31
2019-02-21T15:57:43.869Z,99547.86
2019-02-21T16:00:15.182Z,99542.05
2019-02-21T16:02:44.271Z,99545.19
2019-02-21T16:05:13.797Z,99558.77
2019-02-21T16:07:42.914Z,99563.25
2019-02-21T16:10:14.293Z,99568.23
2019-02-21T16:12:43.886Z,99562.53
2019-02-21T16:15:16.165Z,99565.91
2019-02-21T16:17:44.489Z,99566.16
2019-02-21T16:20:14.478Z,99569.98
2019-02-21T16:22:44.157Z,99578.22
2019-02-21T16:25:15.476Z,99569.86
2019-02-21T16:27:44.574Z,99572.27
2019-02-21T16:30:14.267Z,99571.56
2019-02-21T16:32:43.522Z,99557.02
2019-02-21T16:35:12.779Z,99566.94
2019-02-21T16:37:42.120Z,99569.60
2019-02-21T16:40:12.406Z,99575.53
2019-02-21T16:42:41.633Z,99575.48
2019-02-21T16:45:12.029Z,99563.45
2019-02-21T16:47:41.129Z,99570.84
2019-02-21T16:50:11.160Z,99576.17
2019-02-21T16:52:40.300Z,99573.12
2019-02-21T16:55:11.480Z,99575.56
2019-02-21T16:57:40.617Z,99574.59
2019-02-21T17:00:11.205Z,99569.77
2019-02-21T17:02:40.312Z,99567.93
2019-02-21T17:05:09.859Z,99572.15
2019-02-21T17:07:38.968Z,99573.12
2019-02-21T17:10:08.611Z,99571.31
2019-02-21T17:12:37.722Z,99569.56
2019-02-21T17:15:08.131Z,99568.75
2019-02-21T17:17:37.532Z,99584.53
2019-02-21T17:20:08.244Z,99581.98
2019-02-21T17:22:37.390Z,99584.59
2019-02-21T17:25:06.951Z,99573.36
2019-02-21T17:27:36.101Z,99579.66
2019-02-21T17:30:05.750Z,99579.48
2019-02-21T17:32:34.862Z,99576.19
2019-02-21T17:35:04.452Z,99577.75
2019-02-21T17:37:33.562Z,99584.69
2019-02-21T17:40:02.775Z,99586.08
2019-02-21T17:42:31.926Z,99585.00
2019-02-21T17:45:03.301Z,99589.48
2019-02-21T17:47:36.142Z,99580.16
2019-02-21T17:50:06.057Z,99589.37
2019-02-21T17:52:36.107Z,99590.95
2019-02-21T17:55:05.655Z,99591.81
2019-02-21T17:57:36.931Z,99584.52
2019-02-21T18:00:07.922Z,99597.06
2019-02-21T18:02:37.490Z,99589.78
2019-02-21T18:05:06.926Z,99599.68
2019-02-21T18:07:36.798Z,99601.38
2019-02-21T18:10:07.739Z,99604.89
2019-02-21T18:12:36.978Z,99606.34
2019-02-21T18:15:06.384Z,99608.66
2019-02-21T18:17:35.516Z,99610.04
2019-02-21T18:20:05.066Z,99612.52
2019-02-21T18:22:34.167Z,99623.17
2019-02-21T18:25:03.824Z,99623.78
2019-02-21T18:27:34.683Z,99622.71
2019-02-21T18:30:04.020Z,99624.46
2019-02-21T18:32:33.119Z,99632.66
2019-02-21T18:35:02.307Z,99633.81
2019-02-21T18:37:31.401Z,99633.80
2019-02-21T18:40:00.548Z,99639.39
2019-02-21T18:42:29.665Z,99631.98
2019-02-21T18:44:58.756Z,99635.68
2019-02-21T18:47:28.199Z,99635.17
2019-02-21T18:49:57.431Z,99634.95
2019-02-21T18:52:26.585Z,99634.00
2019-02-21T18:54:55.728Z,99645.50
2019-02-21T18:57:25.128Z,99643.68
2019-02-21T18:59:54.439Z,99638.31
2019-02-21T19:02:23.638Z,99633.80
2019-02-21T19:04:52.907Z,99633.80
2019-02-21T19:07:22.102Z,99638.71
2019-02-21T19:09:51.275Z,99637.45
2019-02-21T19:12:20.445Z,99628.36
2019-02-21T19:14:50.155Z,99631.45
2019-02-21T19:17:19.242Z,99627.31
2019-02-21T19:19:48.367Z,99625.38
2019-02-21T19:22:18.102Z,99636.34
2019-02-21T19:24:47.343Z,99636.34
2019-02-21T19:27:17.255Z,99636.18
2019-02-21T19:29:46.731Z,99641.20
2019-02-21T19:32:15.956Z,99638.21
2019-02-21T19:34:45.131Z,99641.98
2019-02-21T19:37:14.451Z,99640.64
2019-02-21T19:39:44.277Z,99649.48
2019-02-21T19:42:13.490Z,99649.34
2019-02-21T19:44:42.678Z,99646.67
2019-02-21T19:47:11.884Z,99651.95
2019-02-21T19:49:41.468Z,99653.02
2019-02-21T19:52:10.660Z,99658.39
2019-02-21T19:54:39.855Z,99654.62
2019-02-21T19:57:09.010Z,99659.44
2019-02-21T19:59:38.373Z,99671.18
2019-02-21T20:02:08.169Z,99669.00
2019-02-21T20:04:37.318Z,99674.22
2019-02-21T20:07:06.562Z,99681.33
2019-02-21T20:09:35.728Z,99685.41
2019-02-21T20:12:05.033Z,99685.41
2019-02-21T20:14:34.187Z,99696.14
2019-02-21T20:17:03.334Z,99691.88
2019-02-21T20:19:32.659Z,99701.89
2019-02-21T20:22:01.754Z,99701.89
2019-02-21T20:24:30.898Z,99706.70
2019-02-21T20:27:00.508Z,99711.56
2019-02-21T20:29:29.696Z,99711.56
2019-02-21T20:31:59.074Z,99710.08
2019-02-21T20:34:28.295Z,99711.27
2019-02-21T20:36:57.556Z,99709.02
2019-02-21T20:39:26.931Z,99701.83
2019-02-21T20:41:56.318Z,99701.83
2019-02-21T20:44:25.438Z,99704.83
2019-02-21T20:46:54.571Z,99697.52
2019-02-21T20:49:23.880Z,99697.52
2019-02-21T20:51:53.063Z,99707.91
2019-02-21T20:54:22.336Z,99705.80
2019-02-21T20:56:51.612Z,99695.55
2019-02-21T20:59:20.722Z,99695.55
2019-02-21T21:01:50.236Z,99712.09
2019-02-21T21:04:19.356Z,99706.05
2019-02-21T21:06:48.522Z,99710.16
2019-02-21T21:09:17.778Z,99710.16
2019-02-21T21:11:46.921Z,99723.04
2019-02-21T21:14:16.007Z,99726.41
2019-02-21T21:16:46.252Z,99726.41
2019-02-21T21:19:15.423Z,99714.41
2019-02-21T21:21:44.739Z,99726.88
2019-02-21T21:24:14.334Z,99726.88
2019-02-21T21:26:43.873Z,99721.73
2019-02-21T21:29:12.979Z,99730.40
2019-02-21T21:31:42.105Z,99737.39
2019-02-21T21:34:11.212Z,99748.07
2019-02-21T21:36:40.348Z,99741.42
2019-02-21T21:39:09.847Z,99741.42
2019-02-21T21:41:39.063Z,99741.49
2019-02-21T21:44:08.254Z,99726.94
2019-02-21T21:46:37.375Z,99726.94
2019-02-21T21:49:06.532Z,99738.34
2019-02-21T21:51:35.631Z,99738.27
2019-02-21T21:54:04.801Z,99736.26
2019-02-21T21:56:33.924Z,99741.52
2019-02-21T21:59:03.084Z,99742.28
2019-02-21T22:01:32.242Z,99742.28
2019-02-21T22:04:01.347Z,99748.24
2019-02-21T22:06:30.511Z,99741.98
2019-02-21T22:09:04.644Z,99746.75
2019-02-21T22:11:31.244Z,99755.00
2019-02-21T22:14:00.681Z,99755.00
2019-02-21T22:16:29.832Z,99741.34
2019-02-21T22:18:58.940Z,99740.09
2019-02-21T22:21:28.295Z,99740.09
2019-02-21T22:23:57.452Z,99748.50
2019-02-21T22:26:26.601Z,99749.22
2019-02-21T22:28:55.724Z,99742.44
2019-02-21T22:31:24.883Z,99751.78
2019-02-21T22:33:54.180Z,99753.09
2019-02-21T22:36:23.336Z,99750.36
2019-02-21T22:38:52.447Z,99753.33
2019-02-21T22:41:21.599Z,99756.86
2019-02-21T22:43:50.718Z,99756.86
2019-02-21T22:46:19.854Z,99758.30
2019-02-21T22:48:49.145Z,99767.89
2019-02-21T22:51:18.351Z,99757.93
2019-02-21T22:53:47.446Z,99762.20
2019-02-21T22:56:16.606Z,99765.27
2019-02-21T22:58:45.802Z,99765.27
2019-02-21T23:01:42.386Z,99768.79
2019-02-21T23:04:48.605Z,99775.62
2019-02-21T23:08:04.810Z,99774.77
2019-02-21T23:10:33.943Z,99776.80
2019-02-21T23:13:03.227Z,99776.80
2019-02-21T23:15:32.358Z,99779.45
2019-02-21T23:18:01.646Z,99782.27
2019-02-21T23:20:30.756Z,99777.69
2019-02-21T23:22:59.897Z,99781.27
2019-02-21T23:25:29.024Z,99780.58
2019-02-21T23:27:58.367Z,99784.77
2019-02-21T23:30:27.475Z,99788.13
2019-02-21T23:32:56.661Z,99788.13
2019-02-21T23:35:25.789Z,99787.23
2019-02-21T23:37:55.268Z,99783.43
2019-02-21T23:40:24.396Z,99783.43
2019-02-21T23:43:20.581Z,99778.81
2019-02-21T23:45:49.704Z,99778.44
2019-02-21T23:48:18.913Z,99776.25
2019-02-21T23:50:48.023Z,99773.17
2019-02-21T23:53:17.173Z,99778.06
2019-02-21T23:55:46.285Z,99778.06
2019-02-21T23:58:15.501Z,99789.78
